Flight Track Log - Related Links

Times and Time Zones

All times are in EDT time to prevent confusion due to time zone crossing. See the SWA726 flight status page for this flight to view local times or setup timezone preferences in your user account.

Time Position Orientation Groundspeed Altitude Reporting Facility
EDT Latitude Longitude Course Direction KTS MPH feet Rate Location/Type
Thu 01:41:38 PM 30.2086 -97.6786 323° Northwest 144 166 36,000  Level Houston Center
Thu 01:42:40 PM 30.2419 -97.7072 323° Northwest 236 272 3,400 -14,758 Descending Houston Center
Thu 01:43:42 PM 30.2531 -97.7853 279° West 243 280 5,500 3,194 Climbing Houston Center
Thu 01:44:44 PM 30.2692 -97.8825 281° West 264 304 10,000 3,677 Climbing Houston Center
Thu 01:45:46 PM 30.2839 -97.9658 282° West 265 305 13,100 2,304 Climbing Houston Center
Thu 01:46:49 PM 30.3056 -98.0694 284° West 311 358 14,800 2,256 Climbing Houston Center
Thu 01:47:51 PM 30.3292 -98.1794 284° West 346 398 17,800 2,226 Climbing Houston Center
Thu 01:48:53 PM 30.3517 -98.2944 283° West 361 415 19,400 1,935 Climbing Houston Center
Thu 01:49:55 PM 30.3778 -98.4178 284° West 384 442 21,800 2,081 Climbing Houston Center
Thu 01:50:57 PM 30.4028 -98.5431 283° West 394 453 23,700 1,935 Climbing Houston Center
Thu 01:51:59 PM 30.4281 -98.6725 283° West 405 466 25,800 1,887 Climbing Houston Center
Thu 01:53:01 PM 30.4544 -98.8014 283° West 406 467 27,600 1,548 Climbing Houston Center
Thu 01:54:03 PM 30.4869 -98.9586 284° West 426 490 29,000 1,824 Climbing Houston Center
Thu 01:55:06 PM 30.5142 -99.0928 283° West 423 487 31,400 1,440 Climbing Houston Center
Thu 01:56:08 PM 30.5383 -99.2117 283° West 410 472 32,000 1,306 Climbing Houston Center
Thu 01:57:10 PM 30.5625 -99.3381 283° West 405 466 34,100 1,645 Climbing Houston Center
Thu 01:58:12 PM 30.5903 -99.4786 283° West 379 436 35,400 919 Climbing Houston Center
Thu 01:59:14 PM 30.6133 -99.5994 283° West 384 442 36,000 290 Climbing Houston Center
Thu 02:00:16 PM 30.6369 -99.7228 283° West 392 451 36,000  Level Houston Center
Thu 02:01:18 PM 30.6608 -99.8444 283° West 391 450 36,000  Level Houston Center
Thu 02:02:20 PM 30.6836 -99.9658 282° West 389 448 36,000  Level Houston Center
Thu 02:03:22 PM 30.7108 -100.1122 282° West 385 443 36,000  Level Houston Center
Thu 02:04:25 PM 30.7339 -100.2303 283° West 383 441 36,000  Level Houston Center
Thu 02:05:27 PM 30.7564 -100.3517 282° West 388 447 36,000  Level Houston Center
Thu 02:06:29 PM 30.7797 -100.4703 283° West 381 438 36,000  Level Houston Center
Thu 02:07:31 PM 30.8017 -100.5919 282° West 386 444 36,000  Level Houston Center
Thu 02:08:33 PM 30.8275 -100.7350 282° West 381 438 36,000  Level Houston Center
Thu 02:09:35 PM 30.8503 -100.8533 283° West 377 434 36,000  Level Houston Center
Thu 02:10:37 PM 30.8703 -100.9747 281° West 380 437 36,000  Level Houston Center
Thu 02:11:39 PM 30.8931 -101.0925 283° West 377 434 36,000  Level Houston Center
Thu 02:12:41 PM 30.9156 -101.2092 283° West 372 428 36,000  Level Houston Center
Thu 02:13:43 PM 30.9372 -101.3347 281° West 375 432 36,000  Level Houston Center
Thu 02:14:41 PM 30.9572 -101.4525 281° West 375 432 36,000  Level Albuquerque Center
Thu 02:15:43 PM 30.9789 -101.5706 282° West 374 430 36,000  Level Albuquerque Center
Thu 02:16:45 PM 30.9994 -101.6900 281° West 374 430 36,000  Level Albuquerque Center
Thu 02:17:47 PM 31.0242 -101.8319 282° West 373 429 36,000  Level Albuquerque Center
Thu 02:18:48 PM 31.0422 -101.9386 281° West 378 435 36,000  Level Albuquerque Center
Thu 02:19:50 PM 31.0631 -102.0589 281° West 379 436 36,000  Level Albuquerque Center
Thu 02:20:52 PM 31.0833 -102.1756 282° West 372 428 36,000  Level Albuquerque Center
Thu 02:21:54 PM 31.1078 -102.3178 281° West 371 427 36,000  Level Albuquerque Center
Thu 02:22:55 PM 31.1281 -102.4347 281° West 370 426 36,000 -293 Level Albuquerque Center
Thu 02:23:57 PM 31.1464 -102.5492 281° West 368 423 35,400 -774 Descending Albuquerque Center
Thu 02:24:59 PM 31.1661 -102.6669 281° West 367 422 34,400 -683 Descending Albuquerque Center
Thu 02:26:00 PM 31.1869 -102.7878 281° West 374 430 34,000 -195 Descending Albuquerque Center
Thu 02:27:02 PM 31.2067 -102.9111 281° West 382 440 34,000  Level Albuquerque Center
Thu 02:28:04 PM 31.2319 -103.0594 281° West 388 447 34,000  Level Albuquerque Center
Thu 02:29:05 PM 31.2517 -103.1847 280° West 389 448 34,000  Level Albuquerque Center
Thu 02:30:07 PM 31.2719 -103.3086 281° West 390 449 34,000  Level Albuquerque Center
Thu 02:31:09 PM 31.2914 -103.4308 281° West 385 443 34,000  Level Albuquerque Center
Thu 02:32:11 PM 31.3100 -103.5522 280° West 382 440 34,000  Level Albuquerque Center
Thu 02:33:12 PM 31.3322 -103.6753 282° West 385 443 34,000  Level Albuquerque Center
Thu 02:34:14 PM 31.3511 -103.8050 280° West 382 440 34,000  Level Albuquerque Center
Thu 02:35:16 PM 31.3706 -103.9253 281° West 379 436 34,000  Level Albuquerque Center
Thu 02:36:18 PM 31.3914 -104.0481 281° West 383 441 34,000  Level Albuquerque Center
Thu 02:37:19 PM 31.4092 -104.1683 280° West 380 437 34,000  Level Albuquerque Center
Thu 02:38:21 PM 31.4308 -104.3128 280° West 377 434 34,000  Level Albuquerque Center
Thu 02:39:23 PM 31.4489 -104.4331 280° West 377 434 34,000  Level Albuquerque Center
Thu 02:40:25 PM 31.4636 -104.5550 278° West 380 437 34,000 -146 Level Albuquerque Center
Thu 02:41:26 PM 31.4758 -104.6761 277° West 378 435 33,700 -1,415 Descending Albuquerque Center
Thu 02:42:28 PM 31.4889 -104.8014 277° West 386 444 31,100 -2,419 Descending Albuquerque Center
Thu 02:43:30 PM 31.5028 -104.9308 277° West 399 459 28,700 -2,585 Descending Albuquerque Center
Thu 02:44:31 PM 31.5189 -105.0892 277° West 408 470 25,800 -2,585 Descending Albuquerque Center
Thu 02:45:33 PM 31.5317 -105.2181 277° West 405 466 23,400 -2,226 Descending Albuquerque Center
Thu 02:46:35 PM 31.5442 -105.3383 277° West 380 437 21,200 -2,081 Descending Albuquerque Center
Thu 02:47:37 PM 31.5539 -105.4497 276° West 347 399 19,100 -2,067 Descending Albuquerque Center
Thu 02:48:05 PM 31.5606 -105.5122 277° West 329 379 18,100 -1,672 Descending Albuquerque Center
Thu 02:48:38 PM 31.5650 -105.5553 277° West 331 381 17,400 -2,262 Descending Albuquerque Center
Thu 02:49:06 PM 31.5681 -105.6203 273° West 337 388 15,800 -2,419 Descending Albuquerque Center
Thu 02:49:40 PM 31.5744 -105.6661 279° West 340 391 14,900 -1,900 Descending Albuquerque Center
Thu 02:50:06 PM 31.5794 -105.7269 276° West 333 383 13,900 -2,129 Descending Albuquerque Center
Thu 02:50:42 PM 31.5869 -105.7900 278° West 322 371 12,700 -2,066 Descending Albuquerque Center
Thu 02:51:07 PM 31.6036 -105.8333 294° West 313 360 11,800 -1,839 Descending Albuquerque Center
Thu 02:51:44 PM 31.6219 -105.8814 294° West 306 352 10,800 -1,500 Descending Albuquerque Center
Thu 02:52:07 PM 31.6256 -105.9275 275° West 299 344 10,300 -1,065 Descending Albuquerque Center
Thu 02:52:46 PM 31.6308 -105.9775 277° West 296 341 9,700 -984 Descending Albuquerque Center
Thu 02:53:08 PM 31.6361 -106.0197 278° West 283 326 9,300 -984 Descending Albuquerque Center
Thu 02:53:47 PM 31.6422 -106.0683 278° West 286 329 8,700 -984 Descending Albuquerque Center
Thu 02:54:09 PM 31.6467 -106.1119 277° West 282 325 8,300 -968 Descending Albuquerque Center
Thu 02:54:49 PM 31.6525 -106.1586 278° West 280 322 7,700 -1,000 Descending Albuquerque Center
Thu 02:55:09 PM 31.6572 -106.2042 277° West 282 325 7,300 -871 Descending Albuquerque Center
Thu 02:55:51 PM 31.6631 -106.2508 278° West 285 328 6,800 -984 Descending Albuquerque Center
Thu 02:56:10 PM 31.6717 -106.2956 283° West 285 328 6,300 -871 Descending Albuquerque Center
Thu 02:56:53 PM 31.7050 -106.3397 312° West 257 296 5,900 -300 Descending Albuquerque Center
Thu 02:57:10 PM 31.7192 -106.3561 315° West 241 277 6,000  Climbing Albuquerque Center
Thu 02:57:55 PM 31.7475 -106.3931 312° West 219 252 5,900 -295 Descending Albuquerque Center
Thu 02:58:11 PM 31.7544 -106.4097 296° West 182 209 5,700 -1,180 Descending Albuquerque Center
Thu 02:58:56 PM 31.7747 -106.4319 317° Northwest 164 189 4,700 -1,082 Descending Albuquerque Center
Thu 02:59:12 PM 31.7828 -106.4250 36° Northeast 127 146 4,600 281 Descending Albuquerque Center
Thu 03:00:00 PM 31.8033 -106.3964 50° Northeast 158 182 5,000 495 Climbing Albuquerque Center
Thu 03:01:01 PM 31.8319 -106.3383 60° Northeast 217 250 5,500 244 Climbing Albuquerque Center
Thu 03:02:03 PM 31.7803 -106.3061 152° Southeast 234 269 5,500 -48 Level Albuquerque Center
Thu 03:03:05 PM 31.7650 -106.3908 258° West 228 262 5,400 -145 Descending Albuquerque Center
Thu 03:04:07 PM 31.7769 -106.4408 286° West 176 203 5,200 -532 Descending Albuquerque Center
Thu 03:05:09 PM 31.8036 -106.4147 40° Northeast 142 163 4,300 -634 Descending Albuquerque Center
Thu 03:06:10 PM 31.8017 -106.3717 93° East 144 166 3,900 -393 Descending Albuquerque Center

Login

Don't have an account? Register now (free) for customized features, flight alerts, and more!